Time;durP1;ratioP1;P1;durP2;ratioP2;P2;SDS_P1;SDS_P2;PMS_P1;PMS_P2;Temp;Humidity;BMP_temperature;BMP_pressure;BME280_temperature;BME280_humidity;BME280_pressure;Samples;Min_cycle;Max_cycle;Signal;HPM_P1;HPM_P2
2021/12/07 00:02:18;;;;;;;22.90;11.43;;;-0.80;99.90;;;;;;4992971;28;20216;-79
2021/12/07 00:04:45;;;;;;;25.43;13.17;;;-0.70;99.90;;;;;;4992907;28;20245;-80
2021/12/07 00:07:12;;;;;;;23.17;11.80;;;-0.70;99.90;;;;;;4993307;28;20195;-79
2021/12/07 00:09:43;;;;;;;23.00;12.13;;;-0.80;99.90;;;;;;4993547;28;20194;-80
2021/12/07 00:12:12;;;;;;;22.97;12.73;;;-0.80;99.90;;;;;;4993198;28;20215;-79
2021/12/07 00:14:41;;;;;;;20.67;11.23;;;-0.80;99.90;;;;;;4993595;28;20198;-80
2021/12/07 00:17:09;;;;;;;23.37;12.70;;;-0.80;99.90;;;;;;4993041;28;20253;-79
2021/12/07 00:19:37;;;;;;;22.90;11.93;;;-0.80;99.90;;;;;;4993085;28;20199;-79
2021/12/07 00:22:08;;;;;;;26.93;11.97;;;-0.80;99.90;;;;;;4992769;28;20198;-80
2021/12/07 00:24:35;;;;;;;21.50;11.97;;;-0.80;99.90;;;;;;4973418;28;20250;-79
2021/12/07 00:27:05;;;;;;;23.53;11.93;;;-0.80;99.90;;;;;;4973651;28;20259;-80
2021/12/07 00:29:33;;;;;;;26.90;12.90;;;-0.80;99.90;;;;;;4973955;28;20257;-80
2021/12/07 00:32:18;;;;;;;24.03;12.70;;;-0.80;99.90;;;;;;4976831;28;20218;-80
2021/12/07 00:35:00;;;;;;;20.63;11.13;;;-0.80;99.90;;;;;;4993168;28;20237;-79
2021/12/07 00:37:30;;;;;;;22.53;12.60;;;-0.80;99.90;;;;;;4992713;28;20636;-80
2021/12/07 00:39:59;;;;;;;24.33;13.20;;;-0.90;99.90;;;;;;4993361;28;20206;-79
2021/12/07 00:42:26;;;;;;;21.90;11.73;;;-0.90;99.90;;;;;;4992849;28;20281;-79
2021/12/07 00:44:55;;;;;;;23.87;12.70;;;-0.90;99.90;;;;;;4996554;28;20264;-80
2021/12/07 00:47:22;;;;;;;24.70;12.37;;;-0.90;99.90;;;;;;4996919;28;20213;-80
2021/12/07 00:49:49;;;;;;;22.40;11.93;;;-0.90;99.90;;;;;;4996637;28;20211;-80
2021/12/07 00:52:16;;;;;;;22.83;12.27;;;-0.90;99.90;;;;;;4996861;28;20273;-80
2021/12/07 00:54:43;;;;;;;21.73;12.27;;;-0.90;99.90;;;;;;4996407;28;20710;-80
2021/12/07 00:57:10;;;;;;;23.67;13.30;;;-0.90;99.90;;;;;;4996474;28;20198;-79
2021/12/07 00:59:37;;;;;;;28.30;13.30;;;-0.90;99.90;;;;;;4996560;28;20190;-80
2021/12/07 01:02:06;;;;;;;24.50;12.80;;;-0.90;99.90;;;;;;4996505;28;20388;-79
2021/12/07 01:04:33;;;;;;;22.37;12.27;;;-0.90;99.90;;;;;;4996034;28;20245;-79
2021/12/07 01:07:02;;;;;;;27.67;12.97;;;-0.90;99.90;;;;;;4996421;28;20253;-80
2021/12/07 01:09:36;;;;;;;24.27;12.43;;;-0.90;99.90;;;;;;4996297;28;20282;-79
2021/12/07 01:25:55;;;;;;;27.63;13.20;;;-0.90;99.90;;;;;;4995851;28;20222;-80
2021/12/07 01:28:28;;;;;;;27.30;13.33;;;-0.80;99.90;;;;;;4995670;28;20229;-80
2021/12/07 01:31:00;;;;;;;24.00;13.83;;;-0.90;99.90;;;;;;4996074;28;20265;-79
2021/12/07 01:33:48;;;;;;;25.83;13.60;;;-0.80;99.90;;;;;;4996143;28;20222;-79
2021/12/07 01:36:35;;;;;;;25.93;14.13;;;-0.80;99.90;;;;;;4996221;28;20187;-80
2021/12/07 01:50:21;;;;;;;27.83;13.53;;;-0.90;99.90;;;;;;4994886;28;20190;-79
2021/12/07 01:53:09;;;;;;;27.57;13.60;;;-0.90;99.90;;;;;;4995693;28;20245;-79
2021/12/07 02:01:07;;;;;;;26.07;13.70;;;-1.00;99.90;;;;;;4995195;28;20197;-80
2021/12/07 02:03:35;;;;;;;25.43;11.93;;;-0.90;99.90;;;;;;4994957;28;20269;-79
2021/12/07 02:06:04;;;;;;;26.40;14.27;;;-1.00;99.90;;;;;;4995305;28;20198;-79
2021/12/07 02:08:31;;;;;;;27.23;14.13;;;-1.00;99.90;;;;;;4995322;28;20198;-79
2021/12/07 02:11:01;;;;;;;28.87;13.10;;;-1.00;99.90;;;;;;4995290;28;20191;-79
2021/12/07 02:16:30;;;;;;;24.40;13.10;;;-1.00;99.90;;;;;;4973658;28;20175;-80
2021/12/07 02:18:57;;;;;;;26.70;13.70;;;-1.10;99.90;;;;;;4973246;28;20199;-79
2021/12/07 02:21:27;;;;;;;23.60;13.30;;;-1.10;99.90;;;;;;4983111;28;20269;-80
2021/12/07 02:23:55;;;;;;;24.87;13.90;;;-1.10;99.90;;;;;;4994644;28;20203;-80
2021/12/07 02:26:22;;;;;;;28.33;15.53;;;-1.10;99.90;;;;;;4995269;28;20277;-80
2021/12/07 02:28:52;;;;;;;34.53;15.50;;;-1.10;99.90;;;;;;4995069;28;20197;-79
2021/12/07 02:31:22;;;;;;;27.70;14.23;;;-1.10;99.90;;;;;;4995006;28;20223;-80
2021/12/07 02:33:49;;;;;;;31.70;15.40;;;-1.10;99.90;;;;;;4994715;28;20215;-79
2021/12/07 02:36:16;;;;;;;26.67;13.40;;;-1.10;99.90;;;;;;4994383;28;20202;-79
2021/12/07 02:38:45;;;;;;;29.70;14.00;;;-1.20;99.90;;;;;;4994734;28;20253;-79
2021/12/07 02:41:12;;;;;;;32.70;16.73;;;-1.20;99.90;;;;;;4994585;28;20257;-80
2021/12/07 02:43:39;;;;;;;30.70;15.43;;;-1.20;99.90;;;;;;4994107;28;20214;-79
2021/12/07 02:46:06;;;;;;;32.70;16.70;;;-1.20;99.90;;;;;;4994572;28;20253;-80
2021/12/07 02:48:33;;;;;;;31.97;16.03;;;-1.20;99.90;;;;;;4994148;28;20714;-79
2021/12/07 02:51:01;;;;;;;32.33;16.20;;;-1.20;99.90;;;;;;4994491;28;20190;-79
2021/12/07 02:53:32;;;;;;;33.10;19.10;;;-1.10;99.90;;;;;;4994442;28;20249;-79
2021/12/07 02:56:02;;;;;;;27.73;14.63;;;-1.20;99.90;;;;;;4994372;28;20183;-79
2021/12/07 02:58:29;;;;;;;33.40;17.03;;;-1.20;99.90;;;;;;4994530;28;20202;-79
2021/12/07 03:01:02;;;;;;;33.27;17.23;;;-1.20;99.90;;;;;;4994322;28;20195;-79
2021/12/07 03:03:34;;;;;;;34.73;18.10;;;-1.20;99.90;;;;;;4993913;28;20319;-80
2021/12/07 03:06:12;;;;;;;35.03;16.10;;;-1.20;99.90;;;;;;4993543;28;20194;-79
2021/12/07 03:09:28;;;;;;;29.10;15.27;;;-1.20;99.90;;;;;;4993416;28;20197;-79
2021/12/07 03:26:00;;;;;;;24.00;12.33;;;-1.20;99.90;;;;;;4993754;28;20229;-79
2021/12/07 03:28:30;;;;;;;28.93;14.07;;;-1.20;99.90;;;;;;4993598;28;20225;-79
2021/12/07 03:30:57;;;;;;;29.80;14.37;;;-1.20;99.90;;;;;;4993506;28;20565;-79
2021/12/07 03:33:24;;;;;;;22.67;12.77;;;-1.20;99.90;;;;;;4993904;28;20199;-80
2021/12/07 03:35:51;;;;;;;26.90;14.20;;;-1.20;99.90;;;;;;4993796;28;20190;-79
2021/12/07 03:38:18;;;;;;;27.50;14.93;;;-1.20;99.90;;;;;;4993259;28;20671;-79
2021/12/07 03:40:45;;;;;;;30.73;15.27;;;-1.20;99.90;;;;;;4993301;28;20198;-79
2021/12/07 03:43:14;;;;;;;28.67;14.10;;;-1.30;99.90;;;;;;4993130;28;20685;-79
2021/12/07 03:45:44;;;;;;;32.00;15.17;;;-1.20;99.90;;;;;;4993461;28;20195;-79
2021/12/07 03:48:13;;;;;;;25.63;14.10;;;-1.30;99.90;;;;;;4993531;28;20202;-79
2021/12/07 03:50:40;;;;;;;23.43;13.17;;;-1.30;99.90;;;;;;4993116;28;20218;-79
2021/12/07 03:53:08;;;;;;;25.17;13.80;;;-1.30;99.90;;;;;;4993170;28;20729;-80
2021/12/07 03:55:35;;;;;;;25.47;13.10;;;-1.30;99.90;;;;;;4993417;28;20244;-79
2021/12/07 03:58:02;;;;;;;28.40;13.87;;;-1.20;99.90;;;;;;4993462;28;20194;-79
2021/12/07 04:00:32;;;;;;;24.77;13.30;;;-1.30;99.90;;;;;;4993410;28;20190;-79
2021/12/07 04:03:03;;;;;;;28.93;13.73;;;-1.30;99.90;;;;;;4993258;28;20238;-79
2021/12/07 04:05:30;;;;;;;29.63;14.30;;;-1.30;99.90;;;;;;4993424;28;20187;-79
2021/12/07 04:07:57;;;;;;;24.27;12.87;;;-1.30;99.90;;;;;;4993531;28;20194;-80
2021/12/07 04:10:25;;;;;;;26.03;14.00;;;-1.30;99.90;;;;;;4993494;28;20600;-79
2021/12/07 04:12:54;;;;;;;26.30;14.03;;;-1.30;99.90;;;;;;4993013;28;20199;-80
2021/12/07 04:15:21;;;;;;;25.33;12.57;;;-1.30;99.90;;;;;;4992848;28;20194;-80
2021/12/07 04:17:49;;;;;;;26.07;12.33;;;-1.30;99.90;;;;;;4993097;28;20194;-80
2021/12/07 04:20:19;;;;;;;24.53;12.87;;;-1.30;99.90;;;;;;4997305;28;20194;-79
2021/12/07 04:22:46;;;;;;;28.33;14.17;;;-1.30;99.90;;;;;;4996827;28;20667;-79
2021/12/07 04:25:16;;;;;;;23.30;12.20;;;-1.30;99.90;;;;;;4997077;28;20218;-79
2021/12/07 04:27:43;;;;;;;25.83;13.00;;;-1.30;99.90;;;;;;4997117;28;20647;-79
2021/12/07 04:30:13;;;;;;;22.87;12.30;;;-1.30;99.90;;;;;;4997112;28;20190;-79
2021/12/07 04:32:40;;;;;;;23.80;11.53;;;-1.40;99.90;;;;;;4996874;28;20274;-80
2021/12/07 04:35:09;;;;;;;21.13;10.87;;;-1.30;99.90;;;;;;4996790;28;20253;-79
2021/12/07 04:37:38;;;;;;;22.43;13.43;;;-1.40;99.90;;;;;;4997014;28;20191;-79
2021/12/07 04:40:06;;;;;;;21.27;11.73;;;-1.40;99.90;;;;;;4996953;28;20195;-79
2021/12/07 04:42:33;;;;;;;21.50;11.80;;;-1.40;99.90;;;;;;4996435;28;20249;-79
2021/12/07 04:45:04;;;;;;;24.13;12.77;;;-1.40;99.90;;;;;;4996605;28;20214;-80
2021/12/07 04:47:39;;;;;;;25.57;12.13;;;-1.40;99.90;;;;;;4997109;28;20273;-79
2021/12/07 04:58:23;;;;;;;21.03;11.73;;;-1.40;99.90;;;;;;4990833;28;20314;-79
2021/12/07 05:00:50;;;;;;;24.70;11.37;;;-1.40;99.90;;;;;;4996405;28;20198;-80
2021/12/07 05:03:17;;;;;;;22.70;12.77;;;-1.50;99.90;;;;;;4996397;28;20202;-80
2021/12/07 05:05:48;;;;;;;22.00;11.40;;;-1.50;99.90;;;;;;4996361;28;20244;-80
2021/12/07 05:08:30;;;;;;;24.70;12.50;;;-1.50;99.90;;;;;;4996444;28;20190;-79
2021/12/07 05:11:23;;;;;;;20.90;11.70;;;-1.50;99.90;;;;;;4996069;28;20594;-79
2021/12/07 05:13:58;;;;;;;24.10;12.07;;;-1.50;99.90;;;;;;4995905;28;20565;-79
2021/12/07 05:16:41;;;;;;;25.93;12.23;;;-1.50;99.90;;;;;;4996478;28;20186;-80
2021/12/07 05:23:54;;;;;;;22.90;12.37;;;-1.50;99.90;;;;;;4996182;28;20187;-79
2021/12/07 05:25:25;;;;;;;22.23;11.17;;;-1.50;99.90;;;;;;4995968;28;20285;-80
2021/12/07 05:39:06;;;;;;;19.07;10.13;;;-1.50;99.90;;;;;;5022595;28;20241;-80
2021/12/07 05:41:34;;;;;;;23.67;11.23;;;-1.50;99.90;;;;;;4995693;28;20233;-81
2021/12/07 05:44:02;;;;;;;18.97;11.10;;;-1.60;99.90;;;;;;4995692;28;20624;-80
2021/12/07 05:46:29;;;;;;;22.17;12.10;;;-1.60;99.90;;;;;;4995319;28;20263;-80
2021/12/07 05:48:56;;;;;;;25.63;11.90;;;-1.60;99.90;;;;;;4995660;28;20613;-81
2021/12/07 05:51:23;;;;;;;26.57;12.20;;;-1.60;99.90;;;;;;4995698;28;20604;-80
2021/12/07 05:53:50;;;;;;;23.17;11.07;;;-1.60;99.90;;;;;;4995255;28;20726;-81
2021/12/07 05:56:17;;;;;;;23.17;12.50;;;-1.60;99.90;;;;;;4995189;28;20674;-80
2021/12/07 05:58:46;;;;;;;21.23;11.30;;;-1.60;99.90;;;;;;4995107;28;20562;-81
2021/12/07 06:01:13;;;;;;;20.23;10.70;;;-1.60;99.90;;;;;;4995460;28;20198;-81
2021/12/07 06:03:40;;;;;;;16.37;8.67;;;-1.60;99.90;;;;;;4995340;28;20195;-81
2021/12/07 06:06:07;;;;;;;22.23;11.17;;;-1.60;99.90;;;;;;4995395;28;20648;-80
2021/12/07 06:08:34;;;;;;;22.33;12.33;;;-1.70;99.90;;;;;;4995246;28;20201;-80
2021/12/07 06:11:01;;;;;;;22.60;11.57;;;-1.70;99.90;;;;;;4995235;28;20198;-80
2021/12/07 06:13:28;;;;;;;20.17;11.80;;;-1.60;99.90;;;;;;4994867;28;20608;-81
2021/12/07 06:15:57;;;;;;;19.97;10.30;;;-1.60;99.90;;;;;;4994962;28;20723;-81
2021/12/07 06:18:24;;;;;;;21.93;12.17;;;-1.70;99.90;;;;;;4994722;28;20205;-81
2021/12/07 06:20:51;;;;;;;22.90;12.10;;;-1.60;99.90;;;;;;4994807;28;20253;-80
2021/12/07 06:23:19;;;;;;;20.57;10.50;;;-1.60;99.90;;;;;;4995069;28;20195;-81
2021/12/07 06:25:47;;;;;;;20.03;11.07;;;-1.60;99.90;;;;;;4994588;28;20691;-80
2021/12/07 06:28:14;;;;;;;18.93;10.23;;;-1.60;99.90;;;;;;4995009;28;20249;-81
2021/12/07 06:30:42;;;;;;;19.70;10.27;;;-1.60;99.90;;;;;;4994570;28;20242;-80
2021/12/07 06:33:10;;;;;;;19.90;11.70;;;-1.60;99.90;;;;;;4994397;28;20329;-80
2021/12/07 06:35:37;;;;;;;22.60;10.37;;;-1.60;99.90;;;;;;4995067;28;20198;-81
2021/12/07 06:38:05;;;;;;;19.40;9.93;;;-1.70;99.90;;;;;;4994932;28;20194;-80
2021/12/07 06:40:32;;;;;;;19.80;10.93;;;-1.70;99.90;;;;;;4994512;28;20203;-80
2021/12/07 06:43:00;;;;;;;18.57;10.03;;;-1.60;99.90;;;;;;4994182;28;20679;-81
2021/12/07 06:45:28;;;;;;;22.90;11.43;;;-1.60;99.90;;;;;;4994544;28;20222;-80
2021/12/07 06:47:56;;;;;;;20.50;11.13;;;-1.60;99.90;;;;;;4994374;28;20553;-80
2021/12/07 06:50:25;;;;;;;19.97;10.60;;;-1.60;99.90;;;;;;4994483;28;20198;-80
2021/12/07 06:52:52;;;;;;;20.10;10.37;;;-1.60;99.90;;;;;;4994161;28;20607;-80
2021/12/07 06:55:20;;;;;;;18.00;11.07;;;-1.60;99.90;;;;;;4994039;28;20673;-80
2021/12/07 06:57:47;;;;;;;16.50;9.07;;;-1.70;99.90;;;;;;4994326;28;20190;-80
2021/12/07 07:00:15;;;;;;;19.00;10.63;;;-1.60;99.90;;;;;;4993994;28;20662;-81
2021/12/07 07:02:42;;;;;;;20.87;10.13;;;-1.70;99.90;;;;;;4993902;28;20218;-81
2021/12/07 07:05:10;;;;;;;19.77;10.27;;;-1.60;99.90;;;;;;4994545;28;20269;-81
2021/12/07 07:07:39;;;;;;;21.03;8.97;;;-1.70;99.90;;;;;;4994066;28;20648;-80
2021/12/07 07:10:08;;;;;;;17.03;9.03;;;-1.70;99.90;;;;;;4994157;28;20261;-80
2021/12/07 07:12:35;;;;;;;19.00;9.50;;;-1.70;99.90;;;;;;5012212;28;20659;-80
2021/12/07 07:15:03;;;;;;;18.23;10.23;;;-1.70;99.90;;;;;;5012089;28;20198;-80
2021/12/07 07:17:30;;;;;;;18.43;11.20;;;-1.70;99.90;;;;;;5012244;28;20706;-80
2021/12/07 07:19:57;;;;;;;17.27;9.47;;;-1.70;99.90;;;;;;5012835;28;20252;-80
2021/12/07 07:22:24;;;;;;;17.60;10.20;;;-1.70;99.90;;;;;;5012792;28;20655;-80
2021/12/07 07:24:52;;;;;;;11.87;6.23;;;-1.70;99.90;;;;;;5014481;28;20225;-80
2021/12/07 07:27:19;;;;;;;16.83;8.47;;;-1.70;99.90;;;;;;5012850;28;20725;-80
2021/12/07 07:29:47;;;;;;;16.90;8.93;;;-1.70;99.90;;;;;;5013335;28;20285;-80
2021/12/07 07:32:14;;;;;;;17.17;9.60;;;-1.70;99.90;;;;;;5012651;28;20221;-80
2021/12/07 07:34:43;;;;;;;17.93;9.00;;;-1.70;99.90;;;;;;5013231;28;20201;-80
2021/12/07 07:37:10;;;;;;;16.13;9.13;;;-1.70;99.90;;;;;;5013721;28;20198;-80
2021/12/07 07:39:37;;;;;;;15.27;8.43;;;-1.70;99.90;;;;;;5013026;28;20679;-80
2021/12/07 07:42:06;;;;;;;15.43;8.07;;;-1.60;99.90;;;;;;5012993;28;20194;-80
2021/12/07 07:44:33;;;;;;;12.93;7.37;;;-1.60;99.90;;;;;;5012983;28;20321;-79
2021/12/07 07:47:00;;;;;;;16.83;7.97;;;-1.70;99.90;;;;;;5008416;28;20650;-80
2021/12/07 07:49:27;;;;;;;14.57;8.27;;;-1.60;99.90;;;;;;5001218;28;20249;-80
2021/12/07 07:51:54;;;;;;;11.87;6.63;;;-1.70;99.90;;;;;;4995595;28;20199;-79
2021/12/07 07:54:21;;;;;;;13.43;7.93;;;-1.60;99.90;;;;;;5005276;28;20279;-80
2021/12/07 07:56:48;;;;;;;14.13;8.10;;;-1.60;99.90;;;;;;5012656;28;20644;-80
2021/12/07 07:59:17;;;;;;;14.07;7.50;;;-1.60;99.90;;;;;;5001843;28;20217;-80
2021/12/07 08:01:44;;;;;;;14.83;8.00;;;-1.60;99.90;;;;;;4998402;28;20254;-80
2021/12/07 08:04:11;;;;;;;16.43;8.40;;;-1.60;99.90;;;;;;4993891;28;20186;-80
2021/12/07 08:06:38;;;;;;;14.70;8.00;;;-1.60;99.90;;;;;;4998168;28;20194;-81
2021/12/07 08:09:08;;;;;;;13.70;7.83;;;-1.60;99.90;;;;;;5000103;28;20261;-80
2021/12/07 08:11:35;;;;;;;14.33;7.87;;;-1.50;99.90;;;;;;5002423;28;20186;-80
2021/12/07 08:14:02;;;;;;;14.80;8.80;;;-1.50;99.90;;;;;;5004266;28;20189;-80
2021/12/07 08:16:31;;;;;;;13.87;8.30;;;-1.50;99.90;;;;;;5012820;28;20268;-80
2021/12/07 08:18:58;;;;;;;12.07;7.23;;;-1.40;99.90;;;;;;5000314;28;20252;-80
2021/12/07 08:21:25;;;;;;;15.27;8.67;;;-1.40;99.90;;;;;;4993210;28;20202;-80
2021/12/07 08:23:52;;;;;;;15.10;8.23;;;-1.40;99.90;;;;;;5000199;28;20186;-80
2021/12/07 08:26:21;;;;;;;14.53;8.10;;;-1.30;99.90;;;;;;5012731;28;20288;-80
2021/12/07 08:28:51;;;;;;;11.30;7.10;;;-1.30;99.90;;;;;;5012803;28;20194;-80
2021/12/07 08:31:21;;;;;;;15.73;7.63;;;-1.40;99.90;;;;;;5011993;28;20272;-80
2021/12/07 08:33:52;;;;;;;12.47;7.77;;;-1.40;99.90;;;;;;5012790;28;20186;-80
2021/12/07 08:36:20;;;;;;;15.50;8.27;;;-1.30;99.90;;;;;;5012624;28;20201;-80
2021/12/07 08:38:49;;;;;;;12.13;7.77;;;-1.30;99.90;;;;;;5012721;28;20194;-79
2021/12/07 08:41:16;;;;;;;13.73;8.13;;;-1.30;99.90;;;;;;5012133;28;20201;-80
2021/12/07 08:43:43;;;;;;;13.00;6.93;;;-1.30;99.90;;;;;;5012309;28;20194;-81
2021/12/07 08:46:13;;;;;;;13.13;7.40;;;-1.20;99.90;;;;;;5012581;28;20678;-80
2021/12/07 08:48:41;;;;;;;13.07;6.90;;;-1.20;99.90;;;;;;5007999;28;20236;-80
2021/12/07 08:51:15;;;;;;;13.43;7.47;;;-1.20;99.90;;;;;;5011980;28;20190;-79
2021/12/07 08:53:52;;;;;;;13.20;6.80;;;-1.10;99.90;;;;;;5009223;28;20536;-80
2021/12/07 09:01:51;;;;;;;16.30;8.17;;;-1.00;99.90;;;;;;5000009;28;20182;-80
2021/12/07 09:04:20;;;;;;;11.37;6.40;;;-1.00;99.90;;;;;;5003881;28;20256;-80
2021/12/07 09:06:50;;;;;;;12.93;7.50;;;-0.90;99.90;;;;;;5005053;28;20183;-80
2021/12/07 09:09:18;;;;;;;11.67;7.43;;;-0.90;99.90;;;;;;5002419;28;20253;-80
2021/12/07 09:11:46;;;;;;;14.07;7.00;;;-0.90;99.90;;;;;;5012891;28;20282;-80
2021/12/07 09:14:14;;;;;;;13.20;7.37;;;-0.90;99.90;;;;;;5008896;28;20191;-80
2021/12/07 09:16:42;;;;;;;12.00;6.93;;;-0.90;99.90;;;;;;4997662;28;20222;-80
2021/12/07 09:19:12;;;;;;;13.63;7.63;;;-0.90;99.90;;;;;;5005161;28;20249;-80
2021/12/07 09:21:40;;;;;;;12.73;7.53;;;-0.90;99.90;;;;;;5006009;28;20273;-80
2021/12/07 09:24:09;;;;;;;14.57;7.70;;;-0.80;99.90;;;;;;5008403;28;20202;-80
2021/12/07 09:26:36;;;;;;;14.10;8.10;;;-0.90;99.90;;;;;;5014871;28;20260;-81
2021/12/07 09:29:04;;;;;;;13.30;6.73;;;-0.80;99.90;;;;;;5015365;28;20713;-80
2021/12/07 09:31:31;;;;;;;12.40;7.40;;;-0.80;99.90;;;;;;5015463;28;20272;-80
2021/12/07 09:33:58;;;;;;;12.30;7.60;;;-0.80;99.90;;;;;;5015274;28;20186;-80
2021/12/07 09:36:26;;;;;;;10.97;7.07;;;-0.80;99.90;;;;;;5015510;28;20624;-81
2021/12/07 09:38:53;;;;;;;11.97;7.17;;;-0.80;99.90;;;;;;5015445;28;20194;-80
2021/12/07 09:41:21;;;;;;;10.07;6.83;;;-0.80;99.90;;;;;;5015708;28;20276;-80
2021/12/07 09:43:48;;;;;;;9.73;5.57;;;-0.80;99.90;;;;;;5015489;28;20190;-80
2021/12/07 09:46:16;;;;;;;12.37;6.57;;;-0.90;99.90;;;;;;5009045;28;20628;-80
2021/12/07 09:48:45;;;;;;;12.27;6.57;;;-0.90;99.90;;;;;;5011372;28;20194;-80
2021/12/07 09:51:14;;;;;;;12.27;7.27;;;-1.00;99.90;;;;;;5014939;28;20221;-80
2021/12/07 09:53:41;;;;;;;12.13;5.67;;;-1.00;99.90;;;;;;5015106;28;20196;-80
2021/12/07 09:56:10;;;;;;;11.83;6.80;;;-1.00;99.90;;;;;;5014700;28;20202;-80
2021/12/07 09:58:39;;;;;;;11.70;6.60;;;-1.00;99.90;;;;;;5015115;28;20252;-80
2021/12/07 10:01:09;;;;;;;12.33;6.37;;;-1.00;99.90;;;;;;5006710;28;20190;-80
2021/12/07 10:03:36;;;;;;;9.60;5.60;;;-0.90;99.90;;;;;;5013578;28;20264;-80
2021/12/07 10:06:03;;;;;;;8.53;6.07;;;-1.00;99.90;;;;;;5014648;28;20218;-80
2021/12/07 10:08:30;;;;;;;9.80;5.93;;;-1.00;99.90;;;;;;5014739;28;20278;-80
2021/12/07 10:11:01;;;;;;;12.17;6.40;;;-0.90;99.90;;;;;;5014396;28;20667;-80
2021/12/07 10:13:30;;;;;;;11.53;7.23;;;-0.90;99.90;;;;;;5014358;28;20182;-80
2021/12/07 10:16:05;;;;;;;10.70;6.70;;;-0.80;99.90;;;;;;5014116;28;20202;-80
2021/12/07 10:18:35;;;;;;;11.07;6.27;;;-0.70;99.90;;;;;;5014032;28;20204;-80
2021/12/07 10:21:05;;;;;;;10.93;6.50;;;-0.60;99.90;;;;;;5007453;28;20236;-80
2021/12/07 10:23:36;;;;;;;8.30;5.63;;;-0.50;99.90;;;;;;5014513;28;20194;-80
2021/12/07 10:26:06;;;;;;;9.33;5.67;;;-0.40;99.90;;;;;;5013943;28;20198;-80
2021/12/07 10:28:36;;;;;;;9.97;5.57;;;-0.40;99.90;;;;;;5014014;28;20198;-80
2021/12/07 10:31:21;;;;;;;11.00;5.20;;;-0.30;99.90;;;;;;5014355;28;21667;-80
2021/12/07 10:33:52;;;;;;;11.67;5.93;;;-0.30;99.90;;;;;;5014657;28;20244;-80
2021/12/07 10:36:22;;;;;;;10.27;6.10;;;-0.30;99.90;;;;;;5017368;28;20244;-80
2021/12/07 10:38:54;;;;;;;10.40;5.83;;;-0.30;99.90;;;;;;5019555;28;20608;-79
2021/12/07 10:41:24;;;;;;;11.77;7.10;;;-0.20;99.90;;;;;;5019920;28;20186;-79
2021/12/07 10:43:55;;;;;;;13.03;7.17;;;-0.10;99.90;;;;;;5019770;28;20220;-79
2021/12/07 10:46:42;;;;;;;10.20;6.60;;;0.00;99.90;;;;;;5019858;28;20209;-79
2021/12/07 10:49:32;;;;;;;9.80;4.97;;;0.20;99.90;;;;;;5018946;28;20205;-78
2021/12/07 10:52:22;;;;;;;13.47;6.33;;;0.20;99.90;;;;;;5004312;28;20194;-78
2021/12/07 10:54:56;;;;;;;14.40;8.03;;;0.20;99.90;;;;;;5007103;28;20192;-79
2021/12/07 10:57:26;;;;;;;13.83;7.77;;;0.20;99.90;;;;;;5019101;28;20209;-79
2021/12/07 11:00:00;;;;;;;12.87;7.13;;;0.30;99.90;;;;;;5019484;28;20236;-80
2021/12/07 11:02:33;;;;;;;13.83;7.93;;;0.20;99.90;;;;;;5019826;28;20186;-80
2021/12/07 11:05:02;;;;;;;17.17;9.10;;;0.30;99.90;;;;;;5019791;28;20240;-80
2021/12/07 11:07:31;;;;;;;11.67;6.97;;;0.40;99.90;;;;;;5013419;28;20201;-79
2021/12/07 11:10:07;;;;;;;13.57;7.67;;;0.50;99.90;;;;;;5019440;28;20198;-79
2021/12/07 11:12:47;;;;;;;14.10;8.50;;;0.50;99.90;;;;;;5019769;28;20186;-79
2021/12/07 11:15:20;;;;;;;14.83;8.77;;;0.50;99.90;;;;;;4991053;28;20185;-78
2021/12/07 11:17:53;;;;;;;14.77;8.83;;;0.60;99.90;;;;;;5011120;28;20182;-79
2021/12/07 11:20:20;;;;;;;16.53;8.83;;;0.50;99.90;;;;;;5012026;28;20635;-79
2021/12/07 11:22:50;;;;;;;13.10;7.70;;;0.50;99.90;;;;;;5011862;28;20190;-79
2021/12/07 11:31:17;;;;;;;15.77;8.67;;;0.40;99.90;;;;;;5012982;28;20235;-79
2021/12/07 11:33:46;;;;;;;16.37;8.03;;;0.30;99.90;;;;;;5013120;28;20183;-80
2021/12/07 11:36:23;;;;;;;15.70;9.47;;;0.20;99.90;;;;;;5012990;28;20213;-80
2021/12/07 11:38:51;;;;;;;13.10;8.40;;;0.10;99.90;;;;;;5014115;28;20605;-80
2021/12/07 11:41:23;;;;;;;15.60;8.27;;;0.10;99.90;;;;;;5009909;28;20652;-79
2021/12/07 11:43:57;;;;;;;14.83;9.07;;;0.10;99.90;;;;;;5001009;28;20175;-80
2021/12/07 11:46:26;;;;;;;17.63;8.77;;;0.00;99.90;;;;;;5003610;28;20248;-79
2021/12/07 11:49:13;;;;;;;15.67;9.03;;;-0.10;99.90;;;;;;5003507;28;20317;-80
2021/12/07 11:51:42;;;;;;;13.43;8.20;;;-0.20;99.90;;;;;;4999527;28;20612;-80
2021/12/07 11:54:11;;;;;;;15.13;8.33;;;-0.20;99.90;;;;;;5003264;28;20187;-79
2021/12/07 11:56:38;;;;;;;15.60;9.27;;;-0.30;99.90;;;;;;4993052;28;20282;-79
2021/12/07 11:59:06;;;;;;;15.73;8.17;;;-0.30;99.90;;;;;;4992926;28;20222;-80
2021/12/07 12:01:33;;;;;;;15.60;8.83;;;-0.30;99.90;;;;;;4993099;28;20253;-80
2021/12/07 12:04:01;;;;;;;14.87;8.70;;;-0.30;99.90;;;;;;4993339;28;20191;-79
2021/12/07 12:06:31;;;;;;;14.53;9.10;;;-0.40;99.90;;;;;;4993230;28;20219;-79
2021/12/07 12:09:00;;;;;;;18.60;9.97;;;-0.40;99.90;;;;;;4993374;28;20182;-80
2021/12/07 12:11:34;;;;;;;16.53;8.77;;;-0.40;99.90;;;;;;4993384;28;20206;-80
2021/12/07 12:14:11;;;;;;;15.10;8.60;;;-0.40;99.90;;;;;;4993380;28;20273;-79
2021/12/07 12:16:50;;;;;;;15.00;8.63;;;-0.40;99.90;;;;;;4993480;28;20193;-80
2021/12/07 12:19:29;;;;;;;15.37;9.93;;;-0.30;99.90;;;;;;4993171;28;20194;-79
2021/12/07 12:22:04;;;;;;;15.37;8.57;;;-0.30;99.90;;;;;;4993405;28;20241;-80
2021/12/07 12:24:36;;;;;;;15.27;8.47;;;-0.30;99.90;;;;;;4993309;28;20236;-80
2021/12/07 12:27:08;;;;;;;16.97;9.40;;;-0.20;99.90;;;;;;4993245;28;20609;-79
2021/12/07 12:29:37;;;;;;;15.87;9.03;;;-0.20;99.90;;;;;;4992764;28;20194;-79
2021/12/07 12:32:05;;;;;;;16.57;8.83;;;-0.30;99.90;;;;;;4992803;28;20540;-80
2021/12/07 12:34:34;;;;;;;17.13;9.43;;;-0.40;99.90;;;;;;4993224;28;20248;-80
2021/12/07 12:37:06;;;;;;;16.17;9.67;;;-0.50;99.90;;;;;;4994514;28;20195;-79
2021/12/07 12:39:54;;;;;;;16.40;9.37;;;-0.60;99.90;;;;;;4999545;28;20631;-79
2021/12/07 12:42:31;;;;;;;16.17;9.43;;;-0.60;99.90;;;;;;5006811;28;20182;-79
2021/12/07 12:45:08;;;;;;;19.13;10.30;;;-0.60;99.90;;;;;;5004353;28;20186;-80
2021/12/07 12:47:38;;;;;;;20.20;10.53;;;-0.70;99.90;;;;;;5001556;28;20531;-79
2021/12/07 12:50:19;;;;;;;15.80;9.53;;;-0.70;99.90;;;;;;5004789;28;20631;-80
2021/12/07 12:52:50;;;;;;;16.73;9.83;;;-0.70;99.90;;;;;;5011010;28;20585;-80
2021/12/07 12:55:36;;;;;;;15.73;9.20;;;-0.70;99.90;;;;;;5003435;28;20578;-79
2021/12/07 12:58:05;;;;;;;16.43;9.10;;;-0.70;99.90;;;;;;5009030;28;20186;-80
2021/12/07 13:01:10;;;;;;;16.17;9.33;;;-0.70;99.90;;;;;;4996673;28;20195;-80
2021/12/07 13:03:55;;;;;;;15.97;9.57;;;-0.70;99.90;;;;;;5009701;28;20186;-80
2021/12/07 13:06:50;;;;;;;15.90;9.20;;;-0.70;99.90;;;;;;5001373;28;20269;-80
2021/12/07 13:09:43;;;;;;;17.93;9.70;;;-0.70;99.90;;;;;;4996706;28;20698;-80
2021/12/07 13:12:14;;;;;;;15.50;9.17;;;-0.70;99.90;;;;;;4995027;28;20647;-79
2021/12/07 13:14:52;;;;;;;18.87;8.73;;;-0.70;1.00;;;;;;4996453;28;20234;-80
2021/12/07 13:17:24;;;;;;;20.50;10.37;;;-0.70;1.00;;;;;;5002147;28;20186;-79
2021/12/07 13:20:18;;;;;;;17.00;9.00;;;-0.70;1.00;;;;;;5015661;28;20182;-81
2021/12/07 13:22:47;;;;;;;18.37;9.63;;;-0.70;1.00;;;;;;5014939;28;20690;-80
2021/12/07 13:25:19;;;;;;;16.30;10.33;;;-0.80;1.00;;;;;;5003225;28;20186;-79
2021/12/07 13:28:10;;;;;;;18.27;9.50;;;-0.90;1.00;;;;;;4995708;28;20226;-79
2021/12/07 13:30:46;;;;;;;18.80;9.90;;;-0.90;1.00;;;;;;4995820;28;20217;-79
2021/12/07 13:33:16;;;;;;;17.43;9.53;;;-1.00;1.00;;;;;;4996175;28;20292;-79
2021/12/07 13:35:43;;;;;;;16.67;9.17;;;-1.10;99.90;;;;;;4995638;28;20532;-79
2021/12/07 13:38:16;;;;;;;18.40;10.37;;;-1.10;99.90;;;;;;5004372;28;20643;-80
2021/12/07 13:40:45;;;;;;;17.40;9.90;;;-1.10;99.90;;;;;;4997741;28;20187;-79
2021/12/07 13:43:30;;;;;;;19.60;10.20;;;-1.10;99.90;;;;;;4995422;28;20199;-80
2021/12/07 13:46:12;;;;;;;17.83;10.77;;;-1.10;1.00;;;;;;4998202;28;20178;-79
2021/12/07 13:48:41;;;;;;;17.07;9.67;;;-1.10;1.00;;;;;;5015428;28;20178;-79
2021/12/07 13:51:09;;;;;;;19.27;10.67;;;-1.10;1.00;;;;;;4974854;28;20230;-79
2021/12/07 13:53:37;;;;;;;19.00;9.83;;;-1.10;1.00;;;;;;4976001;28;20240;-80
2021/12/07 13:56:06;;;;;;;19.83;10.37;;;-1.10;1.00;;;;;;4976147;28;20195;-80
2021/12/07 13:58:53;;;;;;;21.10;11.07;;;-1.20;1.00;;;;;;4976062;28;20195;-80
2021/12/07 14:01:21;;;;;;;21.47;10.83;;;-1.20;1.00;;;;;;4994617;28;20538;-80
2021/12/07 14:03:48;;;;;;;22.20;10.40;;;-1.20;1.00;;;;;;4995143;28;20241;-78
2021/12/07 14:06:15;;;;;;;21.27;10.73;;;-1.20;1.00;;;;;;4994986;28;20687;-79
2021/12/07 14:08:43;;;;;;;24.70;12.20;;;-1.30;99.90;;;;;;4995007;28;20195;-78
2021/12/07 14:11:14;;;;;;;22.70;10.83;;;-1.30;99.90;;;;;;4994783;28;20200;-79
2021/12/07 14:13:42;;;;;;;21.87;10.97;;;-1.30;99.90;;;;;;4993662;28;20222;-79